sensor_id;sensor_type;location;lat;lon;timestamp;pressure;altitude;pressure_sealevel;temperature;humidity
59650;BME280;46162;57.568;25.814;2023-05-12T00:01:34;101940.03;;;6.81;100.00
59650;BME280;46162;57.568;25.814;2023-05-12T00:04:03;101928.88;;;6.87;100.00
59650;BME280;46162;57.568;25.814;2023-05-12T00:06:33;101932.25;;;6.91;100.00
59650;BME280;46162;57.568;25.814;2023-05-12T00:09:01;101934.75;;;6.94;100.00
59650;BME280;46162;57.568;25.814;2023-05-12T00:11:31;101928.41;;;6.95;100.00
59650;BME280;46162;57.568;25.814;2023-05-12T00:14:00;101936.44;;;6.95;100.00
59650;BME280;46162;57.568;25.814;2023-05-12T00:16:28;101938.28;;;6.94;100.00
59650;BME280;46162;57.568;25.814;2023-05-12T00:18:57;101937.34;;;6.95;100.00
59650;BME280;46162;57.568;25.814;2023-05-12T00:21:25;101947.09;;;6.96;100.00
59650;BME280;46162;57.568;25.814;2023-05-12T00:23:54;101949.22;;;6.91;100.00
59650;BME280;46162;57.568;25.814;2023-05-12T00:26:23;101943.09;;;6.89;100.00
59650;BME280;46162;57.568;25.814;2023-05-12T00:28:53;101950.97;;;6.78;100.00
59650;BME280;46162;57.568;25.814;2023-05-12T00:31:22;101954.13;;;6.70;100.00
59650;BME280;46162;57.568;25.814;2023-05-12T00:33:50;101951.81;;;6.64;100.00
59650;BME280;46162;57.568;25.814;2023-05-12T00:36:19;101954.03;;;6.72;100.00
59650;BME280;46162;57.568;25.814;2023-05-12T00:38:48;101957.25;;;6.62;100.00
59650;BME280;46162;57.568;25.814;2023-05-12T00:41:16;101956.00;;;6.97;100.00
59650;BME280;46162;57.568;25.814;2023-05-12T00:43:45;101960.53;;;6.96;100.00
59650;BME280;46162;57.568;25.814;2023-05-12T00:46:16;101963.78;;;6.87;100.00
59650;BME280;46162;57.568;25.814;2023-05-12T00:48:45;101957.06;;;7.08;100.00
59650;BME280;46162;57.568;25.814;2023-05-12T00:51:15;101962.97;;;7.28;100.00
59650;BME280;46162;57.568;25.814;2023-05-12T00:53:44;101961.22;;;7.41;100.00
59650;BME280;46162;57.568;25.814;2023-05-12T00:56:17;101968.13;;;7.45;100.00
59650;BME280;46162;57.568;25.814;2023-05-12T00:58:46;101962.16;;;7.54;100.00
59650;BME280;46162;57.568;25.814;2023-05-12T01:01:17;101963.22;;;7.52;100.00
59650;BME280;46162;57.568;25.814;2023-05-12T01:03:48;101964.06;;;7.52;100.00
59650;BME280;46162;57.568;25.814;2023-05-12T01:06:22;101961.97;;;7.43;100.00
59650;BME280;46162;57.568;25.814;2023-05-12T01:08:56;101966.41;;;7.44;100.00
59650;BME280;46162;57.568;25.814;2023-05-12T01:11:25;101967.53;;;7.54;100.00
59650;BME280;46162;57.568;25.814;2023-05-12T01:13:53;101967.22;;;7.59;100.00
59650;BME280;46162;57.568;25.814;2023-05-12T01:16:28;101968.25;;;7.57;100.00
59650;BME280;46162;57.568;25.814;2023-05-12T01:18:59;101965.56;;;7.57;100.00
59650;BME280;46162;57.568;25.814;2023-05-12T01:21:29;101976.94;;;7.47;100.00
59650;BME280;46162;57.568;25.814;2023-05-12T01:24:02;101974.94;;;7.37;100.00
59650;BME280;46162;57.568;25.814;2023-05-12T01:26:35;101979.19;;;7.12;100.00
59650;BME280;46162;57.568;25.814;2023-05-12T01:29:04;101980.31;;;6.22;100.00
59650;BME280;46162;57.568;25.814;2023-05-12T01:31:33;101984.69;;;6.53;100.00
59650;BME280;46162;57.568;25.814;2023-05-12T01:34:02;101995.16;;;6.58;100.00
59650;BME280;46162;57.568;25.814;2023-05-12T01:36:31;101996.19;;;6.70;100.00
59650;BME280;46162;57.568;25.814;2023-05-12T01:38:59;101994.25;;;6.13;100.00
59650;BME280;46162;57.568;25.814;2023-05-12T01:41:28;102002.13;;;5.38;100.00
59650;BME280;46162;57.568;25.814;2023-05-12T01:43:58;101999.97;;;4.62;100.00
59650;BME280;46162;57.568;25.814;2023-05-12T01:46:27;102002.41;;;4.16;100.00
59650;BME280;46162;57.568;25.814;2023-05-12T01:48:58;102012.34;;;4.13;100.00
59650;BME280;46162;57.568;25.814;2023-05-12T01:51:26;102011.72;;;4.07;100.00
59650;BME280;46162;57.568;25.814;2023-05-12T01:53:57;102005.28;;;4.29;100.00
59650;BME280;46162;57.568;25.814;2023-05-12T01:56:29;102003.81;;;4.41;100.00
59650;BME280;46162;57.568;25.814;2023-05-12T01:58:59;102006.94;;;4.31;100.00
59650;BME280;46162;57.568;25.814;2023-05-12T02:01:28;102012.28;;;3.97;100.00
59650;BME280;46162;57.568;25.814;2023-05-12T02:03:58;102013.75;;;3.85;100.00
59650;BME280;46162;57.568;25.814;2023-05-12T02:06:28;102004.66;;;3.89;100.00
59650;BME280;46162;57.568;25.814;2023-05-12T02:08:56;102010.81;;;4.26;100.00
59650;BME280;46162;57.568;25.814;2023-05-12T02:11:25;102008.44;;;4.20;100.00
59650;BME280;46162;57.568;25.814;2023-05-12T02:13:54;102007.28;;;4.25;100.00
59650;BME280;46162;57.568;25.814;2023-05-12T02:16:25;102017.41;;;4.36;100.00
59650;BME280;46162;57.568;25.814;2023-05-12T02:18:54;102023.84;;;4.49;100.00
59650;BME280;46162;57.568;25.814;2023-05-12T02:21:22;102016.03;;;4.62;100.00
59650;BME280;46162;57.568;25.814;2023-05-12T02:23:52;102020.06;;;4.53;100.00
59650;BME280;46162;57.568;25.814;2023-05-12T02:26:22;102020.69;;;4.59;100.00
59650;BME280;46162;57.568;25.814;2023-05-12T02:28:51;102025.88;;;4.44;100.00
59650;BME280;46162;57.568;25.814;2023-05-12T02:31:21;102017.47;;;4.52;100.00
59650;BME280;46162;57.568;25.814;2023-05-12T02:33:51;102023.72;;;4.52;100.00
59650;BME280;46162;57.568;25.814;2023-05-12T02:36:20;102021.47;;;4.61;100.00
59650;BME280;46162;57.568;25.814;2023-05-12T02:38:49;102019.13;;;4.55;100.00
59650;BME280;46162;57.568;25.814;2023-05-12T02:41:17;102015.56;;;4.71;100.00
59650;BME280;46162;57.568;25.814;2023-05-12T02:43:46;102012.31;;;4.82;100.00
59650;BME280;46162;57.568;25.814;2023-05-12T02:46:14;102021.00;;;5.03;100.00
59650;BME280;46162;57.568;25.814;2023-05-12T02:48:43;102017.69;;;4.98;100.00
59650;BME280;46162;57.568;25.814;2023-05-12T02:51:13;102020.97;;;4.87;100.00
59650;BME280;46162;57.568;25.814;2023-05-12T02:53:42;102034.84;;;4.61;100.00
59650;BME280;46162;57.568;25.814;2023-05-12T02:56:10;102028.00;;;4.72;100.00
59650;BME280;46162;57.568;25.814;2023-05-12T02:58:39;102029.00;;;4.87;100.00
59650;BME280;46162;57.568;25.814;2023-05-12T03:01:07;102022.81;;;5.03;100.00
59650;BME280;46162;57.568;25.814;2023-05-12T03:03:39;102039.84;;;5.17;100.00
59650;BME280;46162;57.568;25.814;2023-05-12T03:06:08;102040.03;;;5.30;100.00
59650;BME280;46162;57.568;25.814;2023-05-12T03:08:38;102036.50;;;5.46;100.00
59650;BME280;46162;57.568;25.814;2023-05-12T03:11:07;102036.59;;;5.60;100.00
59650;BME280;46162;57.568;25.814;2023-05-12T03:13:35;102034.34;;;5.68;100.00
59650;BME280;46162;57.568;25.814;2023-05-12T03:16:04;102037.47;;;5.76;100.00
59650;BME280;46162;57.568;25.814;2023-05-12T03:18:33;102039.84;;;5.81;100.00
59650;BME280;46162;57.568;25.814;2023-05-12T03:21:02;102035.38;;;5.81;100.00
59650;BME280;46162;57.568;25.814;2023-05-12T03:23:31;102039.69;;;5.68;100.00
59650;BME280;46162;57.568;25.814;2023-05-12T03:26:01;102041.84;;;5.77;100.00
59650;BME280;46162;57.568;25.814;2023-05-12T03:28:29;102042.28;;;5.86;100.00
59650;BME280;46162;57.568;25.814;2023-05-12T03:30:58;102041.44;;;6.01;100.00
59650;BME280;46162;57.568;25.814;2023-05-12T03:33:26;102039.03;;;6.27;100.00
59650;BME280;46162;57.568;25.814;2023-05-12T03:35:56;102035.13;;;6.32;100.00
59650;BME280;46162;57.568;25.814;2023-05-12T03:38:25;102041.72;;;6.27;100.00
59650;BME280;46162;57.568;25.814;2023-05-12T03:41:03;102038.97;;;6.42;100.00
59650;BME280;46162;57.568;25.814;2023-05-12T03:43:33;102040.28;;;6.65;100.00
59650;BME280;46162;57.568;25.814;2023-05-12T03:46:02;102046.44;;;6.82;100.00
59650;BME280;46162;57.568;25.814;2023-05-12T03:48:31;102040.69;;;6.88;100.00
59650;BME280;46162;57.568;25.814;2023-05-12T03:51:00;102045.31;;;7.00;100.00
59650;BME280;46162;57.568;25.814;2023-05-12T03:53:28;102035.34;;;7.02;100.00
59650;BME280;46162;57.568;25.814;2023-05-12T03:56:04;102040.31;;;7.08;100.00
59650;BME280;46162;57.568;25.814;2023-05-12T03:58:33;102044.72;;;7.24;100.00
59650;BME280;46162;57.568;25.814;2023-05-12T04:01:01;102037.63;;;7.37;100.00
59650;BME280;46162;57.568;25.814;2023-05-12T04:03:30;102042.22;;;7.49;100.00
59650;BME280;46162;57.568;25.814;2023-05-12T04:06:01;102046.03;;;7.60;100.00
59650;BME280;46162;57.568;25.814;2023-05-12T04:08:30;102041.78;;;7.56;100.00
59650;BME280;46162;57.568;25.814;2023-05-12T04:11:00;102047.53;;;7.64;100.00
59650;BME280;46162;57.568;25.814;2023-05-12T04:13:30;102041.84;;;7.68;100.00
59650;BME280;46162;57.568;25.814;2023-05-12T04:15:59;102047.28;;;7.81;100.00
59650;BME280;46162;57.568;25.814;2023-05-12T04:18:28;102050.88;;;7.82;100.00
59650;BME280;46162;57.568;25.814;2023-05-12T04:20:58;102053.25;;;7.86;100.00
59650;BME280;46162;57.568;25.814;2023-05-12T04:23:27;102054.38;;;7.96;100.00
59650;BME280;46162;57.568;25.814;2023-05-12T04:25:56;102058.47;;;8.02;100.00
59650;BME280;46162;57.568;25.814;2023-05-12T04:28:25;102057.88;;;8.11;100.00
59650;BME280;46162;57.568;25.814;2023-05-12T04:30:55;102056.59;;;8.17;100.00
59650;BME280;46162;57.568;25.814;2023-05-12T04:33:24;102057.91;;;8.24;100.00
59650;BME280;46162;57.568;25.814;2023-05-12T04:35:54;102067.44;;;8.43;100.00
59650;BME280;46162;57.568;25.814;2023-05-12T04:38:23;102066.38;;;8.45;100.00
59650;BME280;46162;57.568;25.814;2023-05-12T04:40:56;102059.72;;;8.51;100.00
59650;BME280;46162;57.568;25.814;2023-05-12T04:43:26;102066.50;;;8.56;100.00
59650;BME280;46162;57.568;25.814;2023-05-12T04:46:00;102058.44;;;8.69;100.00
59650;BME280;46162;57.568;25.814;2023-05-12T04:48:28;102055.13;;;8.78;100.00
59650;BME280;46162;57.568;25.814;2023-05-12T04:50:57;102062.53;;;8.88;100.00
59650;BME280;46162;57.568;25.814;2023-05-12T04:53:27;102053.50;;;9.01;100.00
59650;BME280;46162;57.568;25.814;2023-05-12T04:56:01;102062.34;;;9.16;100.00
59650;BME280;46162;57.568;25.814;2023-05-12T04:58:34;102060.06;;;9.23;100.00
59650;BME280;46162;57.568;25.814;2023-05-12T05:01:05;102067.38;;;9.34;100.00
59650;BME280;46162;57.568;25.814;2023-05-12T05:03:34;102068.53;;;9.55;100.00
59650;BME280;46162;57.568;25.814;2023-05-12T05:06:03;102062.16;;;9.56;100.00
59650;BME280;46162;57.568;25.814;2023-05-12T05:08:32;102064.94;;;9.67;100.00
59650;BME280;46162;57.568;25.814;2023-05-12T05:11:02;102062.56;;;10.00;100.00
59650;BME280;46162;57.568;25.814;2023-05-12T05:13:31;102070.19;;;10.06;100.00
59650;BME280;46162;57.568;25.814;2023-05-12T05:15:59;102073.53;;;10.09;100.00
59650;BME280;46162;57.568;25.814;2023-05-12T05:18:31;102081.16;;;10.16;100.00
59650;BME280;46162;57.568;25.814;2023-05-12T05:20:59;102079.97;;;10.20;100.00
59650;BME280;46162;57.568;25.814;2023-05-12T05:23:28;102080.16;;;10.29;100.00
59650;BME280;46162;57.568;25.814;2023-05-12T05:25:57;102080.09;;;10.42;100.00
59650;BME280;46162;57.568;25.814;2023-05-12T05:28:25;102074.75;;;10.65;100.00
59650;BME280;46162;57.568;25.814;2023-05-12T05:30:54;102077.50;;;10.87;100.00
59650;BME280;46162;57.568;25.814;2023-05-12T05:33:23;102075.81;;;10.86;100.00
59650;BME280;46162;57.568;25.814;2023-05-12T05:35:53;102073.84;;;11.00;100.00
59650;BME280;46162;57.568;25.814;2023-05-12T05:38:22;102073.72;;;11.12;100.00
59650;BME280;46162;57.568;25.814;2023-05-12T05:40:51;102066.25;;;11.27;100.00
59650;BME280;46162;57.568;25.814;2023-05-12T05:43:22;102072.91;;;11.46;100.00
59650;BME280;46162;57.568;25.814;2023-05-12T05:45:51;102078.91;;;11.49;100.00
59650;BME280;46162;57.568;25.814;2023-05-12T05:48:22;102084.91;;;11.64;100.00
59650;BME280;46162;57.568;25.814;2023-05-12T05:50:52;102082.09;;;11.66;100.00
59650;BME280;46162;57.568;25.814;2023-05-12T05:53:23;102082.09;;;11.66;100.00
59650;BME280;46162;57.568;25.814;2023-05-12T05:55:52;102083.69;;;11.79;100.00
59650;BME280;46162;57.568;25.814;2023-05-12T05:58:22;102090.56;;;11.95;100.00
59650;BME280;46162;57.568;25.814;2023-05-12T06:00:51;102086.22;;;12.03;100.00
59650;BME280;46162;57.568;25.814;2023-05-12T06:03:19;102086.31;;;12.13;100.00
59650;BME280;46162;57.568;25.814;2023-05-12T06:05:48;102094.03;;;12.29;100.00
59650;BME280;46162;57.568;25.814;2023-05-12T06:08:18;102092.94;;;12.32;100.00
59650;BME280;46162;57.568;25.814;2023-05-12T06:10:47;102094.34;;;12.47;100.00
59650;BME280;46162;57.568;25.814;2023-05-12T06:13:17;102079.53;;;12.51;100.00
59650;BME280;46162;57.568;25.814;2023-05-12T06:15:45;102089.97;;;12.56;100.00
59650;BME280;46162;57.568;25.814;2023-05-12T06:18:14;102081.91;;;12.65;100.00
59650;BME280;46162;57.568;25.814;2023-05-12T06:20:43;102085.16;;;13.01;100.00
59650;BME280;46162;57.568;25.814;2023-05-12T06:23:11;102093.75;;;13.06;100.00
59650;BME280;46162;57.568;25.814;2023-05-12T06:25:41;102094.72;;;13.05;100.00
59650;BME280;46162;57.568;25.814;2023-05-12T06:28:09;102099.63;;;13.11;100.00
59650;BME280;46162;57.568;25.814;2023-05-12T06:30:38;102089.53;;;13.44;100.00
59650;BME280;46162;57.568;25.814;2023-05-12T06:33:07;102094.31;;;13.62;100.00
59650;BME280;46162;57.568;25.814;2023-05-12T06:35:35;102096.50;;;13.68;100.00
59650;BME280;46162;57.568;25.814;2023-05-12T06:38:04;102097.09;;;13.81;100.00
59650;BME280;46162;57.568;25.814;2023-05-12T06:40:33;102106.00;;;13.93;100.00
59650;BME280;46162;57.568;25.814;2023-05-12T06:43:03;102089.44;;;14.06;100.00
59650;BME280;46162;57.568;25.814;2023-05-12T06:45:34;102101.16;;;14.16;100.00
59650;BME280;46162;57.568;25.814;2023-05-12T06:48:03;102091.75;;;14.20;100.00
59650;BME280;46162;57.568;25.814;2023-05-12T06:50:32;102101.75;;;14.39;100.00
59650;BME280;46162;57.568;25.814;2023-05-12T06:53:00;102100.22;;;14.56;100.00
59650;BME280;46162;57.568;25.814;2023-05-12T06:55:29;102089.50;;;14.74;100.00
59650;BME280;46162;57.568;25.814;2023-05-12T06:57:57;102094.28;;;15.09;100.00
59650;BME280;46162;57.568;25.814;2023-05-12T07:00:28;102102.56;;;15.17;100.00
59650;BME280;46162;57.568;25.814;2023-05-12T07:02:56;102099.00;;;15.17;100.00
59650;BME280;46162;57.568;25.814;2023-05-12T07:05:25;102095.94;;;15.30;100.00
59650;BME280;46162;57.568;25.814;2023-05-12T07:07:54;102101.88;;;15.43;100.00
59650;BME280;46162;57.568;25.814;2023-05-12T07:10:22;102098.94;;;15.36;100.00
59650;BME280;46162;57.568;25.814;2023-05-12T07:12:51;102104.34;;;15.46;100.00
59650;BME280;46162;57.568;25.814;2023-05-12T07:15:19;102105.69;;;15.60;100.00
59650;BME280;46162;57.568;25.814;2023-05-12T07:17:50;102106.66;;;15.68;100.00
59650;BME280;46162;57.568;25.814;2023-05-12T07:20:19;102099.66;;;15.66;100.00
59650;BME280;46162;57.568;25.814;2023-05-12T07:22:47;102097.47;;;15.79;100.00
59650;BME280;46162;57.568;25.814;2023-05-12T07:25:18;102105.44;;;15.90;100.00
59650;BME280;46162;57.568;25.814;2023-05-12T07:27:47;102100.41;;;16.13;95.65
59650;BME280;46162;57.568;25.814;2023-05-12T07:30:19;102100.28;;;16.33;100.00
59650;BME280;46162;57.568;25.814;2023-05-12T07:32:50;102095.28;;;16.46;100.00
59650;BME280;46162;57.568;25.814;2023-05-12T07:35:19;102096.03;;;16.56;99.19
59650;BME280;46162;57.568;25.814;2023-05-12T07:37:48;102101.97;;;16.70;100.00
59650;BME280;46162;57.568;25.814;2023-05-12T07:40:17;102104.28;;;17.01;85.65
59650;BME280;46162;57.568;25.814;2023-05-12T07:42:45;102103.84;;;17.13;100.00
59650;BME280;46162;57.568;25.814;2023-05-12T07:45:14;102098.56;;;17.12;100.00
59650;BME280;46162;57.568;25.814;2023-05-12T07:47:50;102101.94;;;17.32;100.00
59650;BME280;46162;57.568;25.814;2023-05-12T07:50:19;102102.91;;;16.96;100.00
59650;BME280;46162;57.568;25.814;2023-05-12T07:52:48;102098.91;;;16.91;100.00
59650;BME280;46162;57.568;25.814;2023-05-12T07:55:18;102111.13;;;17.05;96.70
59650;BME280;46162;57.568;25.814;2023-05-12T07:57:48;102096.59;;;17.22;98.97
59650;BME280;46162;57.568;25.814;2023-05-12T08:00:17;102099.09;;;17.41;77.17
59650;BME280;46162;57.568;25.814;2023-05-12T08:02:46;102090.56;;;17.45;87.64
59650;BME280;46162;57.568;25.814;2023-05-12T08:05:16;102092.69;;;17.59;64.74
59650;BME280;46162;57.568;25.814;2023-05-12T08:07:45;102095.56;;;17.57;70.54
59650;BME280;46162;57.568;25.814;2023-05-12T08:10:14;102086.56;;;17.65;82.81
59650;BME280;46162;57.568;25.814;2023-05-12T08:12:42;102092.44;;;17.78;79.71
59650;BME280;46162;57.568;25.814;2023-05-12T08:15:11;102087.44;;;18.08;68.69
59650;BME280;46162;57.568;25.814;2023-05-12T08:17:40;102090.16;;;18.08;80.44
59650;BME280;46162;57.568;25.814;2023-05-12T08:20:10;102085.75;;;18.15;77.05
59650;BME280;46162;57.568;25.814;2023-05-12T08:22:40;102086.09;;;18.20;64.20
59650;BME280;46162;57.568;25.814;2023-05-12T08:25:08;102077.34;;;18.17;68.55
59650;BME280;46162;57.568;25.814;2023-05-12T08:27:38;102073.91;;;18.07;67.05
59650;BME280;46162;57.568;25.814;2023-05-12T08:30:07;102076.28;;;18.01;64.52
59650;BME280;46162;57.568;25.814;2023-05-12T08:32:36;102073.41;;;18.11;67.90
59650;BME280;46162;57.568;25.814;2023-05-12T08:35:05;102068.66;;;18.21;67.04
59650;BME280;46162;57.568;25.814;2023-05-12T08:37:34;102066.09;;;18.28;73.31
59650;BME280;46162;57.568;25.814;2023-05-12T08:40:12;102068.66;;;18.21;65.83
59650;BME280;46162;57.568;25.814;2023-05-12T08:42:43;102070.00;;;18.17;60.86
59650;BME280;46162;57.568;25.814;2023-05-12T08:45:16;102062.34;;;18.21;68.07
59650;BME280;46162;57.568;25.814;2023-05-12T08:47:45;102061.50;;;18.45;58.52
59650;BME280;46162;57.568;25.814;2023-05-12T08:50:16;102070.91;;;18.59;56.89
59650;BME280;46162;57.568;25.814;2023-05-12T08:52:45;102063.06;;;18.80;55.87
59650;BME280;46162;57.568;25.814;2023-05-12T08:55:16;102056.69;;;19.04;58.36
59650;BME280;46162;57.568;25.814;2023-05-12T08:57:47;102052.81;;;19.38;48.35
59650;BME280;46162;57.568;25.814;2023-05-12T09:00:16;102050.59;;;19.42;52.81
59650;BME280;46162;57.568;25.814;2023-05-12T09:02:46;102048.38;;;19.37;47.24
59650;BME280;46162;57.568;25.814;2023-05-12T09:05:20;102052.97;;;19.45;50.30
59650;BME280;46162;57.568;25.814;2023-05-12T09:07:50;102037.84;;;19.57;52.37
59650;BME280;46162;57.568;25.814;2023-05-12T09:10:23;102039.69;;;19.65;51.83
59650;BME280;46162;57.568;25.814;2023-05-12T09:13:12;102042.63;;;19.71;48.15
59650;BME280;46162;57.568;25.814;2023-05-12T09:15:44;102029.84;;;19.87;51.20
59650;BME280;46162;57.568;25.814;2023-05-12T09:18:13;102029.69;;;20.11;51.27
59650;BME280;46162;57.568;25.814;2023-05-12T09:20:41;102032.97;;;20.07;45.48
59650;BME280;46162;57.568;25.814;2023-05-12T09:23:15;102029.75;;;20.26;54.12
59650;BME280;46162;57.568;25.814;2023-05-12T09:25:46;102028.47;;;20.37;50.77
59650;BME280;46162;57.568;25.814;2023-05-12T09:28:14;102026.56;;;20.37;49.59
59650;BME280;46162;57.568;25.814;2023-05-12T09:30:43;102017.72;;;20.27;49.31
59650;BME280;46162;57.568;25.814;2023-05-12T09:33:12;102020.59;;;20.34;47.02
59650;BME280;46162;57.568;25.814;2023-05-12T09:35:42;102019.59;;;20.50;49.06
59650;BME280;46162;57.568;25.814;2023-05-12T09:38:12;102018.91;;;20.56;51.90
59650;BME280;46162;57.568;25.814;2023-05-12T09:40:41;102013.25;;;20.49;50.57
59650;BME280;46162;57.568;25.814;2023-05-12T09:43:14;102014.69;;;20.68;44.89
59650;BME280;46162;57.568;25.814;2023-05-12T09:45:43;102007.31;;;20.83;43.97
59650;BME280;46162;57.568;25.814;2023-05-12T09:48:13;102002.50;;;20.86;46.61
59650;BME280;46162;57.568;25.814;2023-05-12T09:50:43;102004.56;;;20.98;50.00
59650;BME280;46162;57.568;25.814;2023-05-12T09:53:14;102013.47;;;21.15;52.38
59650;BME280;46162;57.568;25.814;2023-05-12T09:55:44;102009.50;;;20.50;44.94
59650;BME280;46162;57.568;25.814;2023-05-12T09:58:15;102009.47;;;20.35;50.59
59650;BME280;46162;57.568;25.814;2023-05-12T10:00:44;102007.44;;;20.29;50.33
59650;BME280;46162;57.568;25.814;2023-05-12T10:03:17;102000.97;;;20.68;51.99
59650;BME280;46162;57.568;25.814;2023-05-12T10:05:49;102002.59;;;20.92;50.71
59650;BME280;46162;57.568;25.814;2023-05-12T10:08:23;101997.69;;;21.17;52.12
59650;BME280;46162;57.568;25.814;2023-05-12T10:10:52;102001.44;;;21.31;46.88
59650;BME280;46162;57.568;25.814;2023-05-12T10:13:25;101996.03;;;21.38;48.77
59650;BME280;46162;57.568;25.814;2023-05-12T10:15:55;101995.84;;;21.54;46.03
59650;BME280;46162;57.568;25.814;2023-05-12T10:18:25;101996.22;;;21.36;43.04
59650;BME280;46162;57.568;25.814;2023-05-12T10:20:55;101995.31;;;21.44;49.16
59650;BME280;46162;57.568;25.814;2023-05-12T10:23:25;102003.91;;;21.41;48.10
59650;BME280;46162;57.568;25.814;2023-05-12T10:25:54;101995.34;;;21.65;50.44
59650;BME280;46162;57.568;25.814;2023-05-12T10:28:26;101994.97;;;21.54;50.12
59650;BME280;46162;57.568;25.814;2023-05-12T10:30:55;101987.16;;;21.21;45.75
59650;BME280;46162;57.568;25.814;2023-05-12T10:33:25;101987.28;;;21.79;50.25
59650;BME280;46162;57.568;25.814;2023-05-12T10:35:54;101985.44;;;21.86;47.16
59650;BME280;46162;57.568;25.814;2023-05-12T10:38:22;101983.63;;;21.57;43.89
59650;BME280;46162;57.568;25.814;2023-05-12T10:40:52;101987.03;;;21.59;45.67
59650;BME280;46162;57.568;25.814;2023-05-12T10:43:26;101988.09;;;20.98;42.29
59650;BME280;46162;57.568;25.814;2023-05-12T10:46:08;101987.91;;;20.70;47.97
59650;BME280;46162;57.568;25.814;2023-05-12T10:48:49;101985.13;;;20.55;48.69
59650;BME280;46162;57.568;25.814;2023-05-12T10:51:19;101990.31;;;20.27;51.80
59650;BME280;46162;57.568;25.814;2023-05-12T10:53:54;101989.41;;;20.12;51.02
59650;BME280;46162;57.568;25.814;2023-05-12T10:56:24;101981.72;;;19.84;61.63
59650;BME280;46162;57.568;25.814;2023-05-12T10:59:15;101982.09;;;20.27;55.62
59650;BME280;46162;57.568;25.814;2023-05-12T11:01:59;101985.88;;;20.26;46.77
59650;BME280;46162;57.568;25.814;2023-05-12T11:04:38;101984.06;;;20.18;47.55
59650;BME280;46162;57.568;25.814;2023-05-12T11:07:09;101977.47;;;20.28;56.63
59650;BME280;46162;57.568;25.814;2023-05-12T11:09:44;101976.09;;;20.47;53.18
59650;BME280;46162;57.568;25.814;2023-05-12T11:12:15;101977.22;;;20.52;49.95
59650;BME280;46162;57.568;25.814;2023-05-12T11:14:46;101972.16;;;20.64;52.38
59650;BME280;46162;57.568;25.814;2023-05-12T11:17:14;101977.22;;;20.90;50.68
59650;BME280;46162;57.568;25.814;2023-05-12T11:19:44;101974.66;;;20.89;46.27
59650;BME280;46162;57.568;25.814;2023-05-12T11:22:16;101973.91;;;21.10;48.87
59650;BME280;46162;57.568;25.814;2023-05-12T11:24:46;101978.75;;;21.08;50.22
59650;BME280;46162;57.568;25.814;2023-05-12T11:27:16;101972.97;;;20.88;45.19
59650;BME280;46162;57.568;25.814;2023-05-12T11:29:55;101976.28;;;20.83;46.56
59650;BME280;46162;57.568;25.814;2023-05-12T11:32:23;101972.56;;;20.91;42.33
59650;BME280;46162;57.568;25.814;2023-05-12T11:34:52;101970.00;;;20.89;46.06
59650;BME280;46162;57.568;25.814;2023-05-12T11:37:21;101965.47;;;20.96;51.65
59650;BME280;46162;57.568;25.814;2023-05-12T11:39:49;101972.97;;;20.88;50.45
59650;BME280;46162;57.568;25.814;2023-05-12T11:42:19;101976.09;;;20.99;49.46
59650;BME280;46162;57.568;25.814;2023-05-12T11:44:53;101959.81;;;20.98;47.19
59650;BME280;46162;57.568;25.814;2023-05-12T11:47:23;101975.16;;;21.07;52.64
59650;BME280;46162;57.568;25.814;2023-05-12T11:49:53;101972.75;;;21.04;51.31
59650;BME280;46162;57.568;25.814;2023-05-12T11:52:23;101976.28;;;20.83;49.20
59650;BME280;46162;57.568;25.814;2023-05-12T11:54:56;101971.34;;;20.93;50.94
59650;BME280;46162;57.568;25.814;2023-05-12T11:57:27;101967.53;;;20.94;49.60
59650;BME280;46162;57.568;25.814;2023-05-12T11:59:58;101963.09;;;20.78;43.28
59650;BME280;46162;57.568;25.814;2023-05-12T12:02:31;101965.28;;;20.68;52.30
59650;BME280;46162;57.568;25.814;2023-05-12T12:05:02;101962.38;;;20.85;47.49
59650;BME280;46162;57.568;25.814;2023-05-12T12:07:35;101960.25;;;20.87;51.77
59650;BME280;46162;57.568;25.814;2023-05-12T12:10:10;101961.13;;;20.87;50.05
59650;BME280;46162;57.568;25.814;2023-05-12T12:12:39;101953.75;;;20.73;46.44
59650;BME280;46162;57.568;25.814;2023-05-12T12:15:11;101948.25;;;20.73;53.35
59650;BME280;46162;57.568;25.814;2023-05-12T12:17:39;101956.94;;;20.76;49.22
59650;BME280;46162;57.568;25.814;2023-05-12T12:20:09;101952.13;;;20.78;53.39
59650;BME280;46162;57.568;25.814;2023-05-12T12:22:37;101951.75;;;20.81;51.78
59650;BME280;46162;57.568;25.814;2023-05-12T12:25:07;101949.66;;;20.83;55.49
59650;BME280;46162;57.568;25.814;2023-05-12T12:27:36;101945.78;;;20.78;54.34
59650;BME280;46162;57.568;25.814;2023-05-12T12:30:05;101951.84;;;20.73;51.45
59650;BME280;46162;57.568;25.814;2023-05-12T12:32:38;101951.56;;;20.68;49.83
59650;BME280;46162;57.568;25.814;2023-05-12T12:35:07;101949.47;;;20.70;46.65
59650;BME280;46162;57.568;25.814;2023-05-12T12:37:36;101946.91;;;20.83;44.28
59650;BME280;46162;57.568;25.814;2023-05-12T12:40:06;101951.47;;;20.91;48.39
59650;BME280;46162;57.568;25.814;2023-05-12T12:42:37;101948.53;;;20.93;45.66
59650;BME280;46162;57.568;25.814;2023-05-12T12:45:07;101953.19;;;20.92;48.42
59650;BME280;46162;57.568;25.814;2023-05-12T12:47:38;101950.06;;;20.80;45.96
59650;BME280;46162;57.568;25.814;2023-05-12T12:50:07;101949.09;;;20.73;47.42
59650;BME280;46162;57.568;25.814;2023-05-12T12:52:36;101945.25;;;20.45;47.63